Time;durP1;ratioP1;P1;durP2;ratioP2;P2;SDS_P1;SDS_P2;PMS_P1;PMS_P2;Temp;Humidity;BMP_temperature;BMP_pressure;BME280_temperature;BME280_humidity;BME280_pressure;Samples;Min_cycle;Max_cycle;Signal;HPM_P1;HPM_P2
2023/01/27 00:00:39;;;;;;;16.05;10.02;;;4.90;99.90;;;;;;5093470;28;20054;-68
2023/01/27 00:03:06;;;;;;;12.95;9.60;;;4.90;99.90;;;;;;5093328;28;20490;-69
2023/01/27 00:05:32;;;;;;;16.48;9.43;;;4.80;99.90;;;;;;5093345;28;20039;-68
2023/01/27 00:07:57;;;;;;;16.75;9.60;;;4.80;99.90;;;;;;5092894;28;20123;-68
2023/01/27 00:10:24;;;;;;;13.48;10.00;;;4.70;99.90;;;;;;5091984;28;20043;-68
2023/01/27 00:15:34;;;;;;;10.70;8.73;;;4.90;99.90;;;;;;5091666;28;20408;-68
2023/01/27 00:18:00;;;;;;;13.82;10.05;;;4.80;99.90;;;;;;5092677;28;20036;-68
2023/01/27 00:26:05;;;;;;;15.67;10.50;;;4.70;99.90;;;;;;5092999;28;20389;-68
2023/01/27 00:28:37;;;;;;;12.05;8.77;;;4.80;99.90;;;;;;5092590;28;20443;-68
2023/01/27 00:31:04;;;;;;;13.63;8.68;;;4.60;99.90;;;;;;5092967;28;20044;-68
2023/01/27 00:33:29;;;;;;;11.82;8.07;;;4.70;99.90;;;;;;5093064;28;20119;-69
2023/01/27 00:36:05;;;;;;;13.98;8.65;;;4.70;99.90;;;;;;5092957;28;20123;-69
2023/01/27 00:38:33;;;;;;;16.20;10.35;;;4.70;99.90;;;;;;5091286;28;20051;-69
2023/01/27 00:41:18;;;;;;;13.50;8.68;;;4.70;99.90;;;;;;5092634;28;20071;-69
2023/01/27 00:43:48;;;;;;;16.67;10.00;;;4.70;99.90;;;;;;5092500;28;20040;-68
2023/01/27 00:46:14;;;;;;;15.55;8.93;;;4.70;99.90;;;;;;5092702;28;20039;-68
2023/01/27 00:48:40;;;;;;;12.75;8.20;;;4.70;99.90;;;;;;5092371;28;20040;-68
2023/01/27 00:51:06;;;;;;;8.07;6.57;;;4.60;99.90;;;;;;5092502;28;20101;-68
2023/01/27 00:53:31;;;;;;;8.05;6.30;;;4.70;99.90;;;;;;5092341;28;20048;-69
2023/01/27 00:55:57;;;;;;;11.07;5.60;;;4.60;99.90;;;;;;5092376;28;20553;-69
2023/01/27 00:58:27;;;;;;;9.18;5.15;;;4.50;99.90;;;;;;5091926;28;20070;-68
2023/01/27 01:00:54;;;;;;;8.90;5.57;;;4.70;99.90;;;;;;5091090;28;20048;-68
2023/01/27 01:03:21;;;;;;;8.35;5.75;;;4.60;99.90;;;;;;5092207;28;20036;-69
2023/01/27 01:05:46;;;;;;;10.25;5.18;;;4.60;99.90;;;;;;5092261;28;20040;-68
2023/01/27 01:08:12;;;;;;;8.73;5.35;;;4.50;99.90;;;;;;5091700;28;20424;-68
2023/01/27 01:10:38;;;;;;;9.52;4.95;;;4.70;99.90;;;;;;5092195;28;20416;-68
2023/01/27 01:13:06;;;;;;;7.18;4.68;;;4.60;99.90;;;;;;5090628;28;20420;-69
2023/01/27 01:15:35;;;;;;;8.10;4.80;;;4.60;99.90;;;;;;5090787;28;20036;-68
2023/01/27 01:18:02;;;;;;;6.63;4.45;;;4.70;99.90;;;;;;5091820;28;20409;-68
2023/01/27 01:20:27;;;;;;;7.97;4.03;;;4.70;99.90;;;;;;5090942;28;20419;-69
2023/01/27 01:22:53;;;;;;;11.35;4.57;;;4.80;99.90;;;;;;5091931;28;20040;-69
2023/01/27 01:25:18;;;;;;;10.68;4.20;;;4.80;99.90;;;;;;5090580;28;20039;-69
2023/01/27 01:27:44;;;;;;;7.35;4.10;;;4.60;99.90;;;;;;5091861;28;20044;-69
2023/01/27 01:30:10;;;;;;;10.70;3.50;;;4.70;99.90;;;;;;5092021;28;20039;-68
2023/01/27 01:32:36;;;;;;;7.63;3.92;;;4.70;99.90;;;;;;5091578;28;20089;-69
2023/01/27 01:35:02;;;;;;;5.75;3.85;;;4.80;99.90;;;;;;5090780;28;20052;-69
2023/01/27 01:37:27;;;;;;;7.82;3.42;;;4.80;99.90;;;;;;5090330;28;20126;-69
2023/01/27 01:39:53;;;;;;;5.65;3.72;;;4.80;99.90;;;;;;5091693;28;20032;-69
2023/01/27 01:42:18;;;;;;;6.95;3.63;;;4.80;99.90;;;;;;5090659;28;20093;-68
2023/01/27 01:44:46;;;;;;;7.30;3.70;;;4.80;99.90;;;;;;5091716;28;20036;-68
2023/01/27 01:47:17;;;;;;;9.40;3.95;;;4.80;99.90;;;;;;5091603;28;20050;-68
2023/01/27 01:49:45;;;;;;;5.03;3.58;;;4.80;99.90;;;;;;5091840;28;20044;-69
2023/01/27 01:52:18;;;;;;;5.60;3.50;;;4.70;99.90;;;;;;5091551;28;20439;-68
2023/01/27 01:54:49;;;;;;;8.02;3.78;;;4.80;99.90;;;;;;5091596;28;20043;-68
2023/01/27 01:57:23;;;;;;;4.90;2.80;;;4.90;99.90;;;;;;5091341;28;20055;-68
2023/01/27 02:00:00;;;;;;;;;;;4.90;99.90;;;;;;5091998;28;20044;-68
2023/01/27 02:02:26;;;;;;;5.65;3.50;;;4.80;99.90;;;;;;5091402;28;19916;-69
2023/01/27 02:05:07;;;;;;;7.13;3.00;;;4.80;99.90;;;;;;5091255;28;20118;-69
2023/01/27 02:07:45;;;;;;;4.65;3.30;;;4.90;99.90;;;;;;5091314;28;20072;-68
2023/01/27 02:10:11;;;;;;;3.65;2.67;;;4.90;99.90;;;;;;5091456;28;20036;-68
2023/01/27 02:12:37;;;;;;;3.88;2.60;;;4.80;99.90;;;;;;5091019;28;20093;-68
2023/01/27 02:15:07;;;;;;;7.05;2.92;;;5.00;99.90;;;;;;5091243;28;20543;-68
2023/01/27 02:17:33;;;;;;;4.40;3.05;;;4.90;99.90;;;;;;5090781;28;20488;-68
2023/01/27 02:20:09;;;;;;;5.10;2.80;;;5.00;99.90;;;;;;5091383;28;20130;-69
2023/01/27 02:22:52;;;;;;;4.78;2.90;;;4.90;99.90;;;;;;5091312;28;20055;-69
2023/01/27 02:25:35;;;;;;;4.40;2.72;;;4.90;99.90;;;;;;5091243;28;20051;-70
2023/01/27 02:28:02;;;;;;;3.95;2.53;;;4.90;99.90;;;;;;5091085;28;20485;-68
2023/01/27 02:30:28;;;;;;;4.28;2.47;;;5.00;99.90;;;;;;5091197;28;20523;-68
2023/01/27 02:32:53;;;;;;;4.60;2.30;;;5.00;99.90;;;;;;5091123;28;20036;-68
2023/01/27 02:35:27;;;;;;;3.80;2.08;;;5.00;99.90;;;;;;5091035;28;20039;-68
2023/01/27 02:37:53;;;;;;;5.88;2.28;;;5.00;99.90;;;;;;5090673;28;20051;-68
2023/01/27 02:40:20;;;;;;;6.75;2.65;;;5.00;99.90;;;;;;5090858;28;20040;-68
2023/01/27 02:42:46;;;;;;;4.28;2.33;;;5.00;99.90;;;;;;5090786;28;20497;-68
2023/01/27 02:45:11;;;;;;;2.97;2.00;;;5.00;99.90;;;;;;5092641;28;20040;-68
2023/01/27 02:47:37;;;;;;;2.60;2.05;;;5.00;99.90;;;;;;5094356;28;20485;-68
2023/01/27 02:50:03;;;;;;;4.13;2.20;;;5.00;99.90;;;;;;5094719;28;20044;-69
2023/01/27 02:52:28;;;;;;;5.03;1.98;;;4.90;99.90;;;;;;5094544;28;20040;-68
2023/01/27 02:54:54;;;;;;;5.18;2.40;;;4.90;99.90;;;;;;5094516;28;20036;-68
2023/01/27 02:57:19;;;;;;;3.47;2.25;;;5.00;99.90;;;;;;5094348;28;20047;-69
2023/01/27 02:59:45;;;;;;;6.78;2.35;;;5.00;99.90;;;;;;5094475;28;20469;-68
2023/01/27 03:02:13;;;;;;;3.95;2.33;;;5.00;99.90;;;;;;5094494;28;20036;-68
2023/01/27 03:04:39;;;;;;;2.72;1.98;;;4.90;99.90;;;;;;5094624;28;20043;-68
2023/01/27 03:07:05;;;;;;;3.88;1.90;;;5.00;99.90;;;;;;5094194;28;20493;-68
2023/01/27 03:09:30;;;;;;;3.97;2.50;;;5.00;99.90;;;;;;5093832;28;20393;-69
2023/01/27 03:20:09;;;;;;;6.40;2.30;;;4.80;99.90;;;;;;5094419;28;20097;-68
2023/01/27 03:22:35;;;;;;;3.60;2.03;;;4.80;99.90;;;;;;5094320;28;20040;-69
2023/01/27 03:25:00;;;;;;;4.65;2.90;;;4.80;99.90;;;;;;5094140;28;20553;-68
2023/01/27 03:27:26;;;;;;;3.20;2.58;;;4.80;99.90;;;;;;5093877;28;20036;-68
2023/01/27 03:29:54;;;;;;;3.30;1.98;;;4.80;99.90;;;;;;5093019;28;20052;-68
2023/01/27 03:32:26;;;;;;;4.22;1.65;;;4.80;99.90;;;;;;5093812;28;20158;-68
2023/01/27 03:34:52;;;;;;;2.90;1.83;;;4.80;99.90;;;;;;5090716;28;20217;-68
2023/01/27 03:48:19;;;;;;;8.48;2.97;;;4.80;99.90;;;;;;5093222;28;20518;-69
2023/01/27 03:50:51;;;;;;;5.97;2.58;;;4.70;99.90;;;;;;5093543;28;20454;-68
2023/01/27 03:53:18;;;;;;;3.88;2.30;;;4.80;99.90;;;;;;5093429;28;20144;-69
2023/01/27 03:55:45;;;;;;;5.25;2.40;;;4.80;99.90;;;;;;5092426;28;20047;-68
2023/01/27 03:58:21;;;;;;;3.33;2.13;;;4.90;99.90;;;;;;5093301;28;20115;-68
2023/01/27 04:00:53;;;;;;;5.95;2.33;;;4.90;99.90;;;;;;5093605;28;20115;-68
2023/01/27 04:08:53;;;;;;;2.78;2.25;;;4.80;99.90;;;;;;5092852;28;20102;-69
2023/01/27 04:14:04;;;;;;;3.78;2.72;;;4.70;99.90;;;;;;5097003;22;20534;-72
2023/01/27 04:16:30;;;;;;;2.88;2.50;;;4.70;99.90;;;;;;5055455;28;20063;-72
2023/01/27 04:18:56;;;;;;;4.60;2.80;;;4.70;99.90;;;;;;5055134;28;20117;-72
2023/01/27 04:21:24;;;;;;;4.53;2.45;;;4.60;99.90;;;;;;5054584;28;20527;-72
2023/01/27 04:23:50;;;;;;;9.13;2.83;;;4.60;99.90;;;;;;5054780;28;20037;-72
2023/01/27 04:26:15;;;;;;;5.38;2.90;;;4.60;99.90;;;;;;5055295;28;20188;-72
2023/01/27 04:28:41;;;;;;;8.65;3.63;;;4.60;99.90;;;;;;5054923;28;20208;-72
2023/01/27 04:31:06;;;;;;;10.10;3.28;;;4.60;99.90;;;;;;5055102;28;20040;-72
2023/01/27 04:33:32;;;;;;;6.55;2.92;;;4.50;99.90;;;;;;5055046;28;20052;-72
2023/01/27 04:35:57;;;;;;;5.40;3.08;;;4.60;99.90;;;;;;5073060;28;20040;-73
2023/01/27 04:38:23;;;;;;;8.02;3.53;;;4.60;99.90;;;;;;5054515;28;20040;-72
2023/01/27 04:40:48;;;;;;;16.05;4.28;;;4.60;99.90;;;;;;5072906;28;20040;-72
2023/01/27 04:43:14;;;;;;;9.45;5.55;;;4.70;99.90;;;;;;5072588;28;20032;-72
2023/01/27 04:45:39;;;;;;;12.88;5.97;;;4.60;99.90;;;;;;5072925;28;20063;-72
2023/01/27 04:48:05;;;;;;;10.93;6.03;;;4.60;99.90;;;;;;5072631;28;20063;-72
2023/01/27 04:50:32;;;;;;;11.98;5.70;;;4.60;99.90;;;;;;5073662;28;20036;-72
2023/01/27 04:52:57;;;;;;;7.10;4.75;;;4.50;99.90;;;;;;5072851;28;20040;-72
2023/01/27 04:55:23;;;;;;;7.25;5.18;;;4.50;99.90;;;;;;5073990;28;20040;-72
2023/01/27 04:57:49;;;;;;;10.30;5.15;;;4.50;99.90;;;;;;5073219;28;20044;-72
2023/01/27 05:00:15;;;;;;;9.68;4.70;;;4.50;99.90;;;;;;5073719;28;20075;-72
2023/01/27 05:02:40;;;;;;;4.30;3.33;;;4.50;99.90;;;;;;5073912;28;20101;-72
2023/01/27 05:05:06;;;;;;;7.03;4.88;;;4.50;99.90;;;;;;5073442;28;20043;-72
2023/01/27 05:07:32;;;;;;;10.25;4.80;;;4.50;99.90;;;;;;5055052;28;20059;-73
2023/01/27 05:09:58;;;;;;;9.23;5.30;;;4.50;99.90;;;;;;5073304;28;20067;-71
2023/01/27 05:12:23;;;;;;;8.93;4.47;;;4.40;99.90;;;;;;5073058;28;20036;-71
2023/01/27 05:14:49;;;;;;;5.63;3.65;;;4.40;99.90;;;;;;5056743;28;20150;-72
2023/01/27 05:17:14;;;;;;;10.60;4.05;;;4.40;99.90;;;;;;5055983;28;20052;-72
2023/01/27 05:19:40;;;;;;;6.55;4.05;;;4.40;99.90;;;;;;5056906;28;20040;-71
2023/01/27 05:22:05;;;;;;;6.63;3.55;;;4.40;99.90;;;;;;5056226;28;20040;-71
2023/01/27 05:24:31;;;;;;;6.95;3.33;;;4.40;99.90;;;;;;5055230;28;20037;-71
2023/01/27 05:26:57;;;;;;;4.97;3.70;;;4.40;99.90;;;;;;5071857;28;20044;-71
2023/01/27 05:29:22;;;;;;;5.13;2.88;;;4.40;99.90;;;;;;5054228;28;20048;-71
2023/01/27 05:31:48;;;;;;;5.50;2.95;;;4.30;99.90;;;;;;5054546;28;20047;-71
2023/01/27 05:34:14;;;;;;;4.15;2.67;;;4.40;99.90;;;;;;5072290;28;20044;-71
2023/01/27 05:36:40;;;;;;;4.68;2.60;;;4.40;99.90;;;;;;5053770;28;20489;-71
2023/01/27 05:39:05;;;;;;;5.05;3.03;;;4.30;99.90;;;;;;5071835;28;20097;-71
2023/01/27 05:41:31;;;;;;;5.55;2.75;;;4.30;99.90;;;;;;5071868;28;20040;-71
2023/01/27 05:43:56;;;;;;;4.22;2.70;;;4.30;99.90;;;;;;5071717;28;20517;-71
2023/01/27 05:46:28;;;;;;;4.97;2.40;;;4.30;99.90;;;;;;5054151;28;20034;-71
2023/01/27 05:48:56;;;;;;;7.65;2.72;;;4.30;99.90;;;;;;5053636;28;20040;-71
2023/01/27 05:51:23;;;;;;;4.22;2.35;;;4.30;99.90;;;;;;5071598;28;20044;-71
2023/01/27 05:53:49;;;;;;;4.63;2.20;;;4.20;99.90;;;;;;5071654;28;20036;-71
2023/01/27 05:56:17;;;;;;;4.63;2.33;;;4.20;99.90;;;;;;5071526;28;20052;-71
2023/01/27 05:58:43;;;;;;;2.63;2.35;;;4.20;99.90;;;;;;5071468;28;20047;-71
2023/01/27 06:01:17;;;;;;;4.60;2.30;;;4.20;99.90;;;;;;5071735;28;20094;-73
2023/01/27 06:03:44;;;;;;;6.85;2.42;;;4.10;99.90;;;;;;5071510;28;20470;-72
2023/01/27 06:06:11;;;;;;;5.47;2.22;;;4.20;99.90;;;;;;5071549;28;20033;-72
2023/01/27 06:08:37;;;;;;;5.18;2.50;;;4.20;99.90;;;;;;5036562;28;20086;-72
2023/01/27 06:11:04;;;;;;;6.18;2.83;;;4.30;99.90;;;;;;5053803;28;20033;-72
2023/01/27 06:13:30;;;;;;;4.57;2.47;;;4.20;99.90;;;;;;5053375;28;20087;-72
2023/01/27 06:15:56;;;;;;;7.05;2.80;;;4.20;99.90;;;;;;5053803;28;20425;-72
2023/01/27 06:18:22;;;;;;;5.57;2.05;;;4.30;99.90;;;;;;5053250;28;20047;-72
2023/01/27 06:20:48;;;;;;;8.45;2.78;;;4.30;99.90;;;;;;5075441;28;20041;-72
2023/01/27 06:23:15;;;;;;;3.78;2.45;;;4.30;99.90;;;;;;5057594;28;20052;-72
2023/01/27 06:25:43;;;;;;;5.63;3.50;;;4.20;99.90;;;;;;5057500;28;20033;-72
2023/01/27 06:28:09;;;;;;;8.75;3.70;;;4.20;99.90;;;;;;5056992;28;20052;-72
2023/01/27 06:30:36;;;;;;;6.07;3.30;;;4.20;99.90;;;;;;5075390;28;20055;-72
2023/01/27 06:33:03;;;;;;;6.95;3.03;;;4.30;99.90;;;;;;5075238;28;20064;-73
2023/01/27 06:35:29;;;;;;;4.60;2.30;;;4.30;99.90;;;;;;5057154;28;20076;-72
2023/01/27 06:37:57;;;;;;;10.63;3.17;;;4.20;99.90;;;;;;5056647;28;20036;-73
2023/01/27 06:40:24;;;;;;;8.32;3.35;;;4.30;99.90;;;;;;5057442;28;20133;-72
2023/01/27 06:42:49;;;;;;;7.75;3.42;;;4.30;99.90;;;;;;5075027;28;20044;-72
2023/01/27 06:45:15;;;;;;;7.18;3.00;;;4.30;99.90;;;;;;5040707;28;20041;-72
2023/01/27 06:47:41;;;;;;;9.32;3.50;;;4.30;99.90;;;;;;5056785;28;20562;-72
2023/01/27 06:50:08;;;;;;;8.25;3.88;;;4.30;99.90;;;;;;5074899;28;20119;-72
2023/01/27 06:52:34;;;;;;;9.05;4.07;;;4.30;99.90;;;;;;5074682;28;20036;-72
2023/01/27 06:55:00;;;;;;;7.97;3.38;;;4.30;99.90;;;;;;5040541;28;20443;-72
2023/01/27 06:57:25;;;;;;;6.75;3.85;;;4.30;99.90;;;;;;5056467;28;20047;-72
2023/01/27 06:59:51;;;;;;;6.80;3.70;;;4.40;99.90;;;;;;5057056;28;20461;-72
2023/01/27 07:02:17;;;;;;;6.13;3.10;;;4.30;99.90;;;;;;5074582;28;20043;-72
2023/01/27 07:04:42;;;;;;;11.68;3.45;;;4.20;99.90;;;;;;5074648;28;20064;-72
2023/01/27 07:07:08;;;;;;;5.68;3.15;;;4.40;99.90;;;;;;5074258;28;20498;-72
2023/01/27 07:09:33;;;;;;;8.38;3.25;;;4.40;99.90;;;;;;5074727;28;20037;-72
2023/01/27 07:11:59;;;;;;;9.35;4.00;;;4.30;99.90;;;;;;5074567;28;20044;-72
2023/01/27 07:14:25;;;;;;;5.53;3.20;;;4.30;99.90;;;;;;5056754;28;20044;-72
2023/01/27 07:16:50;;;;;;;8.45;3.03;;;4.30;99.90;;;;;;5074237;28;20043;-72
2023/01/27 07:19:16;;;;;;;5.65;2.75;;;4.30;99.90;;;;;;5056317;28;20056;-72
2023/01/27 07:21:42;;;;;;;8.30;3.30;;;4.20;99.90;;;;;;5056285;28;20064;-72
2023/01/27 07:24:08;;;;;;;4.80;3.17;;;4.30;99.90;;;;;;5056449;28;20036;-72
2023/01/27 07:26:33;;;;;;;8.48;3.55;;;4.30;99.90;;;;;;5074350;28;20033;-73
2023/01/27 07:28:59;;;;;;;3.67;2.78;;;4.30;99.90;;;;;;5073889;28;20082;-72
2023/01/27 07:31:24;;;;;;;5.00;2.60;;;4.30;99.90;;;;;;5055862;28;20124;-72
2023/01/27 07:33:52;;;;;;;6.68;2.92;;;4.40;99.90;;;;;;5073978;28;20153;-72
2023/01/27 07:36:17;;;;;;;8.02;3.05;;;4.30;99.90;;;;;;5039677;28;20044;-72
2023/01/27 07:38:43;;;;;;;10.20;3.15;;;4.40;99.90;;;;;;5073921;28;20678;-72
2023/01/27 07:41:08;;;;;;;12.68;5.15;;;4.20;99.90;;;;;;5074234;28;20033;-72
2023/01/27 07:43:34;;;;;;;6.72;3.70;;;4.30;99.90;;;;;;5073893;28;20040;-72
2023/01/27 07:46:00;;;;;;;7.55;4.03;;;4.20;99.90;;;;;;5055938;28;20097;-72
2023/01/27 07:48:26;;;;;;;12.95;4.22;;;4.30;99.90;;;;;;5073482;28;20115;-72
2023/01/27 07:50:52;;;;;;;10.35;5.28;;;4.20;99.90;;;;;;5039164;28;20045;-72
2023/01/27 07:53:17;;;;;;;9.98;5.72;;;4.40;99.90;;;;;;5073876;28;20047;-72
2023/01/27 07:55:43;;;;;;;9.43;5.60;;;4.30;99.90;;;;;;5073878;28;20037;-72
2023/01/27 07:58:08;;;;;;;13.85;6.93;;;4.40;99.90;;;;;;5073403;28;20040;-72
2023/01/27 08:00:35;;;;;;;9.48;5.38;;;4.30;99.90;;;;;;5055568;28;20124;-72
2023/01/27 08:03:01;;;;;;;12.27;5.88;;;4.50;99.90;;;;;;5073433;28;20028;-73
2023/01/27 08:05:30;;;;;;;5.80;3.95;;;4.30;99.90;;;;;;5073324;28;20032;-72
2023/01/27 08:07:57;;;;;;;8.88;3.45;;;4.60;99.90;;;;;;5055218;28;20047;-72
2023/01/27 08:10:22;;;;;;;7.68;3.00;;;4.60;99.90;;;;;;5073572;28;20041;-72
2023/01/27 08:12:48;;;;;;;6.57;3.58;;;4.70;99.90;;;;;;5073378;28;20032;-73
2023/01/27 08:15:14;;;;;;;7.93;3.90;;;4.70;99.90;;;;;;5073399;28;20405;-73
2023/01/27 08:17:40;;;;;;;4.75;3.33;;;4.60;99.90;;;;;;5054999;28;20037;-72
2023/01/27 08:20:06;;;;;;;10.18;3.13;;;4.50;99.90;;;;;;5055306;28;20502;-72
2023/01/27 08:22:32;;;;;;;7.35;3.80;;;4.60;99.90;;;;;;5038950;28;20044;-72
2023/01/27 08:24:57;;;;;;;4.82;3.00;;;4.70;99.90;;;;;;5073363;28;20046;-72
2023/01/27 08:27:23;;;;;;;5.75;2.88;;;4.70;99.90;;;;;;5072863;28;20124;-72
2023/01/27 08:29:48;;;;;;;8.07;4.07;;;4.80;99.90;;;;;;5055042;28;20068;-72
2023/01/27 08:32:14;;;;;;;5.53;2.72;;;4.90;99.90;;;;;;5072906;28;20040;-72
2023/01/27 08:34:40;;;;;;;7.15;2.63;;;5.00;99.90;;;;;;5054854;28;20048;-72
2023/01/27 08:37:06;;;;;;;7.97;3.25;;;5.00;99.90;;;;;;5072695;28;20390;-73
2023/01/27 08:39:32;;;;;;;6.90;3.03;;;4.90;99.90;;;;;;5054798;28;20072;-72
2023/01/27 08:41:59;;;;;;;6.60;3.10;;;4.80;99.90;;;;;;5053900;28;20457;-72
2023/01/27 08:44:27;;;;;;;6.47;3.05;;;4.70;99.90;;;;;;5054722;28;20498;-72
2023/01/27 08:46:52;;;;;;;5.80;2.83;;;4.60;99.90;;;;;;5054601;28;20040;-72
2023/01/27 08:49:18;;;;;;;7.50;3.67;;;4.50;99.90;;;;;;5054906;28;20044;-72
2023/01/27 08:51:44;;;;;;;5.10;3.38;;;4.50;99.90;;;;;;5054668;28;20071;-72
2023/01/27 08:54:09;;;;;;;11.75;3.85;;;4.50;99.90;;;;;;5038226;28;20115;-72
2023/01/27 08:56:35;;;;;;;8.90;3.95;;;4.60;99.90;;;;;;5072551;28;20089;-72
2023/01/27 08:59:00;;;;;;;10.40;3.38;;;4.50;99.90;;;;;;5072077;28;20051;-72
2023/01/27 09:01:26;;;;;;;7.60;4.13;;;4.40;99.90;;;;;;5072443;28;20115;-72
2023/01/27 09:03:52;;;;;;;7.43;3.88;;;4.50;99.90;;;;;;5054715;28;20032;-72
2023/01/27 09:06:18;;;;;;;8.02;3.67;;;4.40;99.90;;;;;;5054504;28;20517;-72
2023/01/27 09:08:44;;;;;;;7.53;3.50;;;4.50;99.90;;;;;;5072260;28;20042;-72
2023/01/27 09:11:15;;;;;;;8.05;5.40;;;4.30;99.90;;;;;;5072399;28;20115;-72
2023/01/27 09:13:41;;;;;;;7.57;4.70;;;4.50;99.90;;;;;;5072138;28;20501;-72
2023/01/27 09:16:07;;;;;;;7.05;3.55;;;4.50;99.90;;;;;;5071991;28;20597;-72
2023/01/27 09:18:33;;;;;;;10.90;4.70;;;4.40;99.90;;;;;;5071979;28;20145;-72
2023/01/27 09:21:05;;;;;;;9.82;3.40;;;4.40;99.90;;;;;;5072286;28;20409;-72
2023/01/27 09:23:34;;;;;;;6.85;3.55;;;4.50;99.90;;;;;;5071948;28;20512;-72
2023/01/27 09:26:00;;;;;;;9.05;5.05;;;4.60;99.90;;;;;;5072073;28;20470;-72
2023/01/27 09:28:25;;;;;;;8.43;4.63;;;4.50;99.90;;;;;;5053841;28;20048;-72
2023/01/27 09:30:56;;;;;;;8.23;4.28;;;4.40;99.90;;;;;;5071936;28;20408;-72
2023/01/27 09:33:22;;;;;;;10.45;4.95;;;4.50;99.90;;;;;;5072217;28;20444;-72
2023/01/27 09:36:02;;;;;;;13.60;4.78;;;4.40;99.90;;;;;;5072063;28;20040;-72
2023/01/27 09:38:32;;;;;;;9.13;4.13;;;4.40;99.90;;;;;;5053780;28;20045;-72
2023/01/27 09:41:25;;;;;;;8.32;4.57;;;4.60;99.90;;;;;;5071823;28;20102;-71
2023/01/27 09:44:10;;;;;;;6.57;3.78;;;4.70;99.90;;;;;;5072068;28;20044;-71
2023/01/27 09:46:36;;;;;;;7.75;3.78;;;4.60;99.90;;;;;;5071701;28;20586;-71
2023/01/27 09:49:22;;;;;;;10.95;4.90;;;4.70;99.90;;;;;;5053506;28;20087;-71
2023/01/27 09:52:24;;;;;;;11.70;5.88;;;4.70;99.90;;;;;;5053841;28;20109;-72
2023/01/27 09:55:26;;;;;;;9.93;5.38;;;4.70;99.90;;;;;;5071987;28;20044;-71
2023/01/27 09:58:29;;;;;;;9.68;4.35;;;4.70;99.90;;;;;;5071351;28;20094;-71
2023/01/27 10:01:22;;;;;;;9.48;4.88;;;4.80;99.90;;;;;;5071863;28;20413;-71
2023/01/27 10:04:12;;;;;;;14.18;6.00;;;4.80;99.90;;;;;;5071638;28;20036;-71
2023/01/27 10:06:46;;;;;;;7.75;3.83;;;4.80;99.90;;;;;;5071873;28;20048;-71
2023/01/27 10:09:47;;;;;;;7.95;4.30;;;4.70;99.90;;;;;;5071427;28;20044;-71
2023/01/27 10:15:03;;;;;;;7.25;4.57;;;4.80;99.90;;;;;;5090241;22;20932;-67
2023/01/27 10:18:03;;;;;;;5.10;3.00;;;4.90;99.90;;;;;;5070784;28;20045;-68
2023/01/27 10:20:37;;;;;;;4.53;1.95;;;4.90;99.90;;;;;;5070995;28;20036;-67
2023/01/27 10:23:21;;;;;;;3.78;1.98;;;5.00;99.90;;;;;;5070890;28;20551;-66
2023/01/27 10:26:13;;;;;;;3.65;2.55;;;5.00;99.90;;;;;;5066813;28;20482;-68
2023/01/27 10:28:46;;;;;;;4.28;2.30;;;4.90;99.90;;;;;;5062175;28;20122;-66
2023/01/27 10:31:22;;;;;;;3.28;2.13;;;4.90;99.90;;;;;;5070737;28;20041;-67
2023/01/27 10:33:55;;;;;;;2.75;2.50;;;4.90;99.90;;;;;;5070769;28;20235;-66
2023/01/27 10:36:29;;;;;;;3.45;2.33;;;4.80;99.90;;;;;;5070995;28;20037;-67
2023/01/27 10:39:28;;;;;;;4.20;2.83;;;4.80;99.90;;;;;;5070415;28;20045;-66
2023/01/27 10:42:30;;;;;;;4.80;2.83;;;4.80;99.90;;;;;;5070983;28;20150;-68
2023/01/27 10:45:09;;;;;;;3.70;2.60;;;4.80;99.90;;;;;;5070908;28;20225;-69
2023/01/27 10:47:48;;;;;;;3.65;2.80;;;4.70;99.90;;;;;;5070479;28;20051;-69
2023/01/27 10:50:38;;;;;;;6.57;2.65;;;4.70;99.90;;;;;;5071023;28;20048;-68
2023/01/27 10:53:19;;;;;;;3.65;2.70;;;4.70;99.90;;;;;;5070861;28;20041;-69
2023/01/27 10:56:07;;;;;;;3.45;2.80;;;4.70;99.90;;;;;;5070810;28;20105;-68
2023/01/27 10:58:47;;;;;;;5.43;2.55;;;4.70;99.90;;;;;;5070216;28;20055;-68
2023/01/27 11:01:16;;;;;;;3.05;2.40;;;4.70;99.90;;;;;;5068547;28;20481;-68
2023/01/27 11:03:53;;;;;;;5.82;2.97;;;4.70;99.90;;;;;;5060724;28;20112;-67
2023/01/27 11:06:23;;;;;;;2.90;2.55;;;4.70;99.90;;;;;;5073533;28;20517;-67
2023/01/27 11:08:52;;;;;;;3.15;2.85;;;4.70;99.90;;;;;;5073692;28;20028;-68
2023/01/27 11:14:18;;;;;;;6.18;4.22;;;4.70;99.90;;;;;;5073662;28;20074;-66
2023/01/27 11:16:50;;;;;;;5.80;5.20;;;4.70;99.90;;;;;;5073907;28;20044;-68
2023/01/27 11:19:29;;;;;;;6.45;4.85;;;4.70;99.90;;;;;;5065226;28;20123;-68
2023/01/27 11:21:56;;;;;;;7.68;4.88;;;4.70;99.90;;;;;;5074078;28;20041;-68
2023/01/27 11:24:31;;;;;;;8.15;4.68;;;4.70;99.90;;;;;;5073942;28;20041;-68
2023/01/27 11:27:13;;;;;;;5.85;3.80;;;4.70;99.90;;;;;;5073599;28;20044;-66
2023/01/27 11:29:52;;;;;;;6.05;4.22;;;4.60;99.90;;;;;;5073652;28;20120;-68
2023/01/27 11:32:46;;;;;;;4.45;2.72;;;4.70;99.90;;;;;;5074033;28;20047;-68
2023/01/27 11:35:13;;;;;;;3.05;2.42;;;4.70;99.90;;;;;;5073732;28;20119;-68
2023/01/27 11:37:41;;;;;;;5.00;4.47;;;4.80;99.90;;;;;;5072919;28;20037;-69
2023/01/27 11:40:18;;;;;;;6.70;3.97;;;4.80;99.90;;;;;;5073116;28;20044;-68
2023/01/27 11:42:44;;;;;;;4.50;3.25;;;4.80;99.90;;;;;;5073722;28;20107;-67
2023/01/27 11:45:15;;;;;;;3.08;2.10;;;4.80;99.90;;;;;;5073688;28;20215;-66
2023/01/27 11:47:41;;;;;;;3.80;2.50;;;4.80;99.90;;;;;;5073229;28;20446;-69
2023/01/27 11:50:14;;;;;;;2.95;2.65;;;4.80;99.90;;;;;;5073404;28;20041;-69
2023/01/27 11:52:39;;;;;;;3.03;2.63;;;4.90;99.90;;;;;;5073175;28;20119;-67
2023/01/27 11:55:13;;;;;;;2.75;2.13;;;4.90;99.90;;;;;;5073498;28;20076;-67
2023/01/27 11:57:40;;;;;;;;;;;4.80;99.90;;;;;;5073329;28;20080;-67
2023/01/27 12:00:25;;;;;;;3.97;2.35;;;4.80;99.90;;;;;;5073365;28;20301;-67
2023/01/27 12:03:06;;;;;;;4.35;2.83;;;4.80;99.90;;;;;;5073055;28;20068;-67
2023/01/27 12:05:41;;;;;;;3.67;2.65;;;4.80;99.90;;;;;;5073309;28;20029;-67
2023/01/27 12:08:06;;;;;;;4.75;2.65;;;4.70;99.90;;;;;;5072996;28;20467;-67
2023/01/27 12:10:34;;;;;;;3.72;3.13;;;4.70;99.90;;;;;;5073123;28;20062;-67
2023/01/27 12:13:07;;;;;;;5.70;4.38;;;4.80;99.90;;;;;;5072761;28;20444;-67
2023/01/27 12:15:33;;;;;;;7.07;4.75;;;4.80;99.90;;;;;;5072927;28;20091;-67
2023/01/27 12:18:10;;;;;;;7.82;4.88;;;4.70;99.90;;;;;;5072472;28;20044;-67
2023/01/27 12:20:40;;;;;;;6.68;3.50;;;4.80;99.90;;;;;;5072957;28;20385;-67
2023/01/27 12:23:27;;;;;;;4.90;3.25;;;4.80;99.90;;;;;;5072804;28;20039;-67
2023/01/27 12:26:03;;;;;;;4.72;3.60;;;4.70;99.90;;;;;;5072477;28;20041;-66
2023/01/27 12:28:33;;;;;;;4.68;3.88;;;4.80;99.90;;;;;;5054522;28;20044;-67
2023/01/27 12:31:28;;;;;;;5.43;3.47;;;4.80;99.90;;;;;;5072823;28;20121;-66
2023/01/27 12:34:07;;;;;;;3.03;2.65;;;4.70;99.90;;;;;;5069884;28;20092;-69
2023/01/27 12:36:40;;;;;;;4.57;2.83;;;4.70;99.90;;;;;;5051273;28;20056;-69
2023/01/27 12:39:27;;;;;;;3.38;2.70;;;4.70;99.90;;;;;;5052427;28;20079;-69
2023/01/27 12:41:53;;;;;;;2.78;2.40;;;4.70;99.90;;;;;;5052381;28;20108;-69
2023/01/27 12:44:21;;;;;;;3.25;2.58;;;4.70;99.90;;;;;;5052124;28;20116;-69
2023/01/27 12:47:13;;;;;;;2.97;2.30;;;4.70;99.90;;;;;;5052147;28;20116;-69
2023/01/27 12:49:41;;;;;;;2.80;2.35;;;4.70;99.90;;;;;;5052476;28;20079;-68
2023/01/27 12:52:19;;;;;;;4.75;2.88;;;4.70;99.90;;;;;;5051282;28;20432;-69
2023/01/27 12:54:45;;;;;;;3.08;2.60;;;4.80;99.90;;;;;;5052428;28;20033;-69
2023/01/27 12:57:16;;;;;;;2.67;2.40;;;4.70;99.90;;;;;;5051733;28;20095;-69
2023/01/27 12:59:51;;;;;;;3.72;2.80;;;4.70;99.90;;;;;;5051176;28;20074;-69
2023/01/27 13:02:18;;;;;;;2.80;2.55;;;4.70;99.90;;;;;;5034214;28;20043;-69
2023/01/27 13:04:54;;;;;;;3.80;2.80;;;4.60;99.90;;;;;;5052251;28;20178;-69
2023/01/27 13:07:26;;;;;;;3.47;2.95;;;4.70;99.90;;;;;;5050653;28;20047;-68
2023/01/27 13:10:00;;;;;;;3.83;2.90;;;4.70;99.90;;;;;;5052240;28;20052;-69
2023/01/27 13:12:28;;;;;;;6.22;3.90;;;4.70;99.90;;;;;;5052024;28;20044;-68
2023/01/27 13:15:04;;;;;;;7.50;5.45;;;4.60;99.90;;;;;;5052096;28;20449;-69
2023/01/27 13:17:50;;;;;;;5.22;4.45;;;4.60;99.90;;;;;;5051720;28;20064;-69
2023/01/27 13:20:21;;;;;;;5.78;4.75;;;4.60;99.90;;;;;;5052209;28;20115;-69
2023/01/27 13:23:09;;;;;;;5.28;4.30;;;4.50;99.90;;;;;;5051784;28;20086;-69
2023/01/27 13:25:44;;;;;;;5.50;4.22;;;4.50;99.90;;;;;;5051329;28;20129;-69
2023/01/27 13:28:16;;;;;;;5.18;3.85;;;4.50;99.90;;;;;;5049787;28;20048;-69
2023/01/27 13:30:46;;;;;;;4.65;3.70;;;4.50;99.90;;;;;;5051920;28;20040;-69
2023/01/27 13:33:14;;;;;;;5.95;4.68;;;4.40;99.90;;;;;;5051774;28;20490;-69
2023/01/27 13:36:04;;;;;;;5.40;4.60;;;4.50;99.90;;;;;;5051761;28;20072;-69
2023/01/27 13:38:40;;;;;;;6.55;3.72;;;4.40;99.90;;;;;;5051255;28;20614;-69
2023/01/27 13:41:16;;;;;;;3.92;3.30;;;4.30;99.90;;;;;;5051840;28;20041;-69
2023/01/27 13:43:49;;;;;;;4.75;3.45;;;4.50;99.90;;;;;;5050228;28;20037;-69
2023/01/27 13:46:27;;;;;;;3.78;2.97;;;4.40;99.90;;;;;;5051623;28;20071;-69
2023/01/27 13:49:13;;;;;;;4.68;2.80;;;4.60;99.90;;;;;;5051040;28;20099;-67
2023/01/27 13:51:39;;;;;;;3.85;2.95;;;4.70;99.90;;;;;;5050858;28;20402;-68